メインページ
METAR-TAF:

METAR-TAF

空港 :

イスタンブル-アタテュルク, トルコ

アタテュルク国際空港

緯度: 40-58N, 経度: 028-49E, 海抜: 48m

現時点の気象観測

当レポートは31分前の11:20(UTC)に作成
南西の風 8kt、南/南東から西の間で変化する
気温 20°C
湿度 46%
気圧 1017 hPa
視程10km以上
高度3000ftの雲は散在している

METAR: LTBA 241120Z 22008KT 160V260 9999 SCT030 20/08 Q1017 NOSIG RMK RWY17L 21008KT 170V240 RWY05 /////KT RWY23 17006KT 140V210

時間: 14:51 (11:51 UTC)

予報

当レポートは1時間11分前の10:40(UTC)に作成
予報は24日の 12時(UTC)から 25日の 18時(UTC)まで有効
南/南西の風 5kt
視程10km以上
高度3500ftの雲は散在している
24日の 13時(UTC)から 24日の 17時(UTC)まで徐々に
北/北東の風 10kt
24日の 20時(UTC)から 24日の 23時(UTC)まで徐々に
視程10km以上
1,500メートル以下は雲なし、積乱雲なし
確率 30%
25日の 02時(UTC)から 25日の 06時(UTC)まで
視程: 4000m
25日の 05時(UTC)から 25日の 07時(UTC)まで徐々に
南西の風 6kt
高度3500ftの雲は散在している

TAF: LTBA 241040Z 2412/2518 21005KT 9999 SCT035 BECMG 2413/2417 03010KT BECMG 2420/2423 CAVOK PROB30 2502/2506 4000 BR BECMG 2505/2507 22006KT SCT035

4,000以上の空港の気象観測と天気予報(METAR報とTAF報)

利用可能な観測所は地図上に黄色い丸と赤い丸で示す。

丸の上にカーソルを重ねると観測所名を参照できる。

次にクリックすると気象観測と天気予報を参照できる。

マップの切り替え:黒色「×」印の緑ボタンをクリックして拡大、「-」印の緑ボタンをクリックして縮小、緑色の三角印をクリックして隣りの地図に切り替え


METAR-TAF: